Weather at Khan Jahan Ali Airport [CLOSED]

Public forecast

Using degrees Celsius for public forecast. Weather courtesy of forecast.io.

Closest aviation weather report (METAR) to Khan Jahan Ali Airport

Closest report is Netaji Subhash Chandra Bose International Airport, 66.4 nm (123.0 km) W. Retrieved 2020/09/29 00:30 UTC (0 seconds ago):

VECC 290030Z 00000KT 2600 BR FEW020 SCT100 28/27 Q1004 NOSIG

Closest aviation forecast (TAF) to Khan Jahan Ali Airport

Closest forecast is Netaji Subhash Chandra Bose International Airport, 66.4 nm (123.0 km) W. Retrieved 2020-09-29 00:54 UTC (0 seconds ago):

TAF VECC 282300Z 2900/3006 00000KT 2500 BR SCT018 SCT100 BECMG 2905/2907 09005KT 3000 BR PROB40 TEMPO 2905/2909 1500 TSRA SCT015 FEW025CB OVC090 BECMG 2912/2914 00000KT BR BECMG 3000/3002 2000 BR